sensor_id;sensor_type;location;lat;lon;timestamp;pressure;altitude;pressure_sealevel;temperature;humidity
48652;BME280;34442;52.362;-1.302;2024-01-16T00:01:44;99905.91;;;1.24;100.00
48652;BME280;34442;52.362;-1.302;2024-01-16T00:04:10;99911.22;;;1.24;100.00
48652;BME280;34442;52.362;-1.302;2024-01-16T00:06:41;99893.06;;;1.37;100.00
48652;BME280;34442;52.362;-1.302;2024-01-16T00:09:08;99895.38;;;1.32;100.00
48652;BME280;34442;52.362;-1.302;2024-01-16T00:11:34;99895.16;;;1.26;100.00
48652;BME280;34442;52.362;-1.302;2024-01-16T00:13:59;99897.34;;;1.30;100.00
48652;BME280;34442;52.362;-1.302;2024-01-16T00:16:24;99889.38;;;1.30;100.00
48652;BME280;34442;52.362;-1.302;2024-01-16T00:18:50;99892.81;;;1.22;100.00
48652;BME280;34442;52.362;-1.302;2024-01-16T00:21:15;99883.28;;;1.30;100.00
48652;BME280;34442;52.362;-1.302;2024-01-16T00:23:41;99892.38;;;1.35;100.00
48652;BME280;34442;52.362;-1.302;2024-01-16T00:26:06;99881.16;;;1.41;100.00
48652;BME280;34442;52.362;-1.302;2024-01-16T00:28:32;99882.47;;;1.37;100.00
48652;BME280;34442;52.362;-1.302;2024-01-16T00:30:57;99890.19;;;1.22;100.00
48652;BME280;34442;52.362;-1.302;2024-01-16T00:33:23;99876.88;;;1.40;100.00
48652;BME280;34442;52.362;-1.302;2024-01-16T00:35:48;99876.34;;;1.37;100.00
48652;BME280;34442;52.362;-1.302;2024-01-16T00:38:14;99867.25;;;1.39;100.00
48652;BME280;34442;52.362;-1.302;2024-01-16T00:40:39;99861.94;;;1.39;100.00
48652;BME280;34442;52.362;-1.302;2024-01-16T00:43:04;99867.25;;;1.39;100.00
48652;BME280;34442;52.362;-1.302;2024-01-16T00:45:30;99857.69;;;1.55;100.00
48652;BME280;34442;52.362;-1.302;2024-01-16T00:47:55;99859.31;;;1.47;100.00
48652;BME280;34442;52.362;-1.302;2024-01-16T00:50:21;99853.88;;;1.49;100.00
48652;BME280;34442;52.362;-1.302;2024-01-16T00:52:47;99855.72;;;1.48;100.00
48652;BME280;34442;52.362;-1.302;2024-01-16T00:55:12;99854.72;;;1.49;100.00
48652;BME280;34442;52.362;-1.302;2024-01-16T00:57:37;99854.06;;;1.56;100.00
48652;BME280;34442;52.362;-1.302;2024-01-16T01:00:04;99854.22;;;1.54;100.00
48652;BME280;34442;52.362;-1.302;2024-01-16T01:02:30;99854.06;;;1.56;100.00
48652;BME280;34442;52.362;-1.302;2024-01-16T01:04:55;99851.41;;;1.56;100.00
48652;BME280;34442;52.362;-1.302;2024-01-16T01:07:21;99851.75;;;1.53;100.00
48652;BME280;34442;52.362;-1.302;2024-01-16T01:09:47;99855.22;;;1.53;100.00
48652;BME280;34442;52.362;-1.302;2024-01-16T01:12:12;99858.19;;;1.50;100.00
48652;BME280;34442;52.362;-1.302;2024-01-16T01:14:37;99850.56;;;1.55;100.00
48652;BME280;34442;52.362;-1.302;2024-01-16T01:17:03;99847.28;;;1.53;100.00
48652;BME280;34442;52.362;-1.302;2024-01-16T01:19:29;99850.25;;;1.58;100.00
48652;BME280;34442;52.362;-1.302;2024-01-16T01:21:54;99850.41;;;1.48;100.00
48652;BME280;34442;52.362;-1.302;2024-01-16T01:24:20;99842.47;;;1.48;100.00
48652;BME280;34442;52.362;-1.302;2024-01-16T01:26:45;99846.91;;;1.48;100.00
48652;BME280;34442;52.362;-1.302;2024-01-16T01:29:10;99841.78;;;1.46;100.00
48652;BME280;34442;52.362;-1.302;2024-01-16T01:31:36;99845.59;;;1.52;100.00
48652;BME280;34442;52.362;-1.302;2024-01-16T01:34:01;99846.63;;;1.59;100.00
48652;BME280;34442;52.362;-1.302;2024-01-16T01:36:27;99838.81;;;1.49;100.00
48652;BME280;34442;52.362;-1.302;2024-01-16T01:38:53;99830.69;;;1.51;100.00
48652;BME280;34442;52.362;-1.302;2024-01-16T01:41:18;99835.38;;;1.65;100.00
48652;BME280;34442;52.362;-1.302;2024-01-16T01:43:43;99824.91;;;1.56;100.00
48652;BME280;34442;52.362;-1.302;2024-01-16T01:46:18;99824.78;;;1.57;100.00
48652;BME280;34442;52.362;-1.302;2024-01-16T01:48:46;99823.59;;;1.60;100.00
48652;BME280;34442;52.362;-1.302;2024-01-16T01:51:14;99820.09;;;1.51;100.00
48652;BME280;34442;52.362;-1.302;2024-01-16T01:53:42;99813.66;;;1.54;100.00
48652;BME280;34442;52.362;-1.302;2024-01-16T01:56:12;99819.63;;;1.56;100.00
48652;BME280;34442;52.362;-1.302;2024-01-16T01:58:39;99826.91;;;1.54;100.00
48652;BME280;34442;52.362;-1.302;2024-01-16T02:01:06;99815.63;;;1.52;100.00
48652;BME280;34442;52.362;-1.302;2024-01-16T02:03:38;99821.28;;;1.48;100.00
48652;BME280;34442;52.362;-1.302;2024-01-16T02:06:05;99820.09;;;1.43;100.00
48652;BME280;34442;52.362;-1.302;2024-01-16T02:08:31;99815.97;;;1.40;100.00
48652;BME280;34442;52.362;-1.302;2024-01-16T02:10:57;99820.25;;;1.41;100.00
48652;BME280;34442;52.362;-1.302;2024-01-16T02:13:23;99816.81;;;1.49;100.00
48652;BME280;34442;52.362;-1.302;2024-01-16T02:15:51;99819.47;;;1.49;100.00
48652;BME280;34442;52.362;-1.302;2024-01-16T02:18:17;99809.84;;;1.48;100.00
48652;BME280;34442;52.362;-1.302;2024-01-16T02:20:43;99808.50;;;1.52;100.00
48652;BME280;34442;52.362;-1.302;2024-01-16T02:23:10;99802.41;;;1.52;100.00
48652;BME280;34442;52.362;-1.302;2024-01-16T02:25:39;99801.56;;;1.51;100.00
48652;BME280;34442;52.362;-1.302;2024-01-16T02:28:05;99804.72;;;1.46;100.00
48652;BME280;34442;52.362;-1.302;2024-01-16T02:30:30;99801.88;;;1.40;100.00
48652;BME280;34442;52.362;-1.302;2024-01-16T02:32:56;99804.38;;;1.41;100.00
48652;BME280;34442;52.362;-1.302;2024-01-16T02:35:21;99791.16;;;1.49;100.00
48652;BME280;34442;52.362;-1.302;2024-01-16T02:37:47;99793.94;;;1.48;100.00
48652;BME280;34442;52.362;-1.302;2024-01-16T02:40:12;99793.94;;;1.48;100.00
48652;BME280;34442;52.362;-1.302;2024-01-16T02:42:38;99785.34;;;1.46;100.00
48652;BME280;34442;52.362;-1.302;2024-01-16T02:45:05;99790.78;;;1.36;100.00
48652;BME280;34442;52.362;-1.302;2024-01-16T02:47:31;99791.78;;;1.43;100.00
48652;BME280;34442;52.362;-1.302;2024-01-16T02:49:56;99792.47;;;1.45;100.00
48652;BME280;34442;52.362;-1.302;2024-01-16T02:52:22;99788.00;;;1.54;100.00
48652;BME280;34442;52.362;-1.302;2024-01-16T02:54:48;99787.19;;;1.54;100.00
48652;BME280;34442;52.362;-1.302;2024-01-16T02:57:13;99786.16;;;1.46;100.00
48652;BME280;34442;52.362;-1.302;2024-01-16T02:59:38;99787.50;;;1.51;100.00
48652;BME280;34442;52.362;-1.302;2024-01-16T03:02:04;99784.22;;;1.57;100.00
48652;BME280;34442;52.362;-1.302;2024-01-16T03:04:30;99781.56;;;1.48;100.00
48652;BME280;34442;52.362;-1.302;2024-01-16T03:06:55;99773.94;;;1.45;100.00
48652;BME280;34442;52.362;-1.302;2024-01-16T03:09:21;99777.22;;;1.47;100.00
48652;BME280;34442;52.362;-1.302;2024-01-16T03:11:46;99777.22;;;1.47;100.00
48652;BME280;34442;52.362;-1.302;2024-01-16T03:14:12;99778.22;;;1.46;100.00
48652;BME280;34442;52.362;-1.302;2024-01-16T03:16:39;99775.91;;;1.43;100.00
48652;BME280;34442;52.362;-1.302;2024-01-16T03:19:04;99774.75;;;1.46;100.00
48652;BME280;34442;52.362;-1.302;2024-01-16T03:21:30;99771.41;;;1.36;100.00
48652;BME280;34442;52.362;-1.302;2024-01-16T03:23:55;99767.63;;;1.38;100.00
48652;BME280;34442;52.362;-1.302;2024-01-16T03:26:20;99759.69;;;1.46;100.00
48652;BME280;34442;52.362;-1.302;2024-01-16T03:28:46;99763.00;;;1.48;100.00
48652;BME280;34442;52.362;-1.302;2024-01-16T03:31:14;99761.53;;;1.54;100.00
48652;BME280;34442;52.362;-1.302;2024-01-16T03:33:40;99749.78;;;1.57;100.00
48652;BME280;34442;52.362;-1.302;2024-01-16T03:36:08;99752.25;;;1.58;100.00
48652;BME280;34442;52.362;-1.302;2024-01-16T03:38:39;99754.56;;;1.53;100.00
48652;BME280;34442;52.362;-1.302;2024-01-16T03:41:04;99761.00;;;1.51;100.00
48652;BME280;34442;52.362;-1.302;2024-01-16T03:43:35;99763.84;;;1.57;100.00
48652;BME280;34442;52.362;-1.302;2024-01-16T03:46:01;99762.84;;;1.58;100.00
48652;BME280;34442;52.362;-1.302;2024-01-16T03:48:26;99760.03;;;1.60;100.00
48652;BME280;34442;52.362;-1.302;2024-01-16T03:50:51;99752.59;;;1.63;100.00
48652;BME280;34442;52.362;-1.302;2024-01-16T03:53:19;99748.13;;;1.64;100.00
48652;BME280;34442;52.362;-1.302;2024-01-16T03:55:44;99748.47;;;1.61;100.00
48652;BME280;34442;52.362;-1.302;2024-01-16T03:58:10;99745.31;;;1.73;100.00
48652;BME280;34442;52.362;-1.302;2024-01-16T04:00:35;99736.88;;;1.62;100.00
48652;BME280;34442;52.362;-1.302;2024-01-16T04:03:00;99722.63;;;1.63;100.00
48652;BME280;34442;52.362;-1.302;2024-01-16T04:05:26;99732.72;;;1.59;100.00
48652;BME280;34442;52.362;-1.302;2024-01-16T04:07:51;99724.94;;;1.66;100.00
48652;BME280;34442;52.362;-1.302;2024-01-16T04:10:17;99731.56;;;1.70;100.00
48652;BME280;34442;52.362;-1.302;2024-01-16T04:12:43;99735.88;;;1.71;100.00
48652;BME280;34442;52.362;-1.302;2024-01-16T04:15:08;99741.00;;;1.72;100.00
48652;BME280;34442;52.362;-1.302;2024-01-16T04:17:34;99733.22;;;1.71;100.00
48652;BME280;34442;52.362;-1.302;2024-01-16T04:19:59;99726.09;;;1.71;100.00
48652;BME280;34442;52.362;-1.302;2024-01-16T04:22:25;99725.78;;;1.74;100.00
48652;BME280;34442;52.362;-1.302;2024-01-16T04:24:50;99718.16;;;1.80;100.00
48652;BME280;34442;52.362;-1.302;2024-01-16T04:27:16;99709.19;;;1.72;100.00
48652;BME280;34442;52.362;-1.302;2024-01-16T04:29:41;99700.44;;;1.72;100.00
48652;BME280;34442;52.362;-1.302;2024-01-16T04:32:07;99696.31;;;1.69;100.00
48652;BME280;34442;52.362;-1.302;2024-01-16T04:34:32;99700.94;;;1.76;100.00
48652;BME280;34442;52.362;-1.302;2024-01-16T04:36:58;99695.81;;;1.74;100.00
48652;BME280;34442;52.362;-1.302;2024-01-16T04:39:23;99686.84;;;1.83;100.00
48652;BME280;34442;52.362;-1.302;2024-01-16T04:41:49;99690.81;;;1.79;100.00
48652;BME280;34442;52.362;-1.302;2024-01-16T04:44:15;99684.88;;;1.85;100.00
48652;BME280;34442;52.362;-1.302;2024-01-16T04:46:40;99686.19;;;1.89;100.00
48652;BME280;34442;52.362;-1.302;2024-01-16T04:49:05;99680.22;;;1.79;100.00
48652;BME280;34442;52.362;-1.302;2024-01-16T04:51:31;99680.53;;;1.84;100.00
48652;BME280;34442;52.362;-1.302;2024-01-16T04:53:56;99673.09;;;1.88;100.00
48652;BME280;34442;52.362;-1.302;2024-01-16T04:56:22;99671.63;;;1.85;100.00
48652;BME280;34442;52.362;-1.302;2024-01-16T04:58:47;99665.00;;;1.89;100.00
48652;BME280;34442;52.362;-1.302;2024-01-16T05:01:13;99665.00;;;1.89;100.00
48652;BME280;34442;52.362;-1.302;2024-01-16T05:03:38;99658.34;;;1.93;100.00
48652;BME280;34442;52.362;-1.302;2024-01-16T05:06:04;99666.97;;;1.87;100.00
48652;BME280;34442;52.362;-1.302;2024-01-16T05:08:29;99657.69;;;1.91;100.00
48652;BME280;34442;52.362;-1.302;2024-01-16T05:10:56;99673.41;;;1.85;100.00
48652;BME280;34442;52.362;-1.302;2024-01-16T05:13:21;99661.03;;;1.85;100.00
48652;BME280;34442;52.362;-1.302;2024-01-16T05:15:47;99655.22;;;1.90;100.00
48652;BME280;34442;52.362;-1.302;2024-01-16T05:18:12;99661.84;;;1.94;100.00
48652;BME280;34442;52.362;-1.302;2024-01-16T05:20:38;99661.84;;;1.94;100.00
48652;BME280;34442;52.362;-1.302;2024-01-16T05:23:03;99658.00;;;1.96;100.00
48652;BME280;34442;52.362;-1.302;2024-01-16T05:25:29;99646.38;;;1.97;100.00
48652;BME280;34442;52.362;-1.302;2024-01-16T05:27:55;99646.56;;;1.96;100.00
48652;BME280;34442;52.362;-1.302;2024-01-16T05:30:21;99636.00;;;1.88;100.00
48652;BME280;34442;52.362;-1.302;2024-01-16T05:32:46;99639.31;;;1.90;100.00
48652;BME280;34442;52.362;-1.302;2024-01-16T05:35:12;99634.16;;;1.96;100.00
48652;BME280;34442;52.362;-1.302;2024-01-16T05:37:37;99634.44;;;2.10;100.00
48652;BME280;34442;52.362;-1.302;2024-01-16T05:40:03;99633.00;;;1.99;100.00
48652;BME280;34442;52.362;-1.302;2024-01-16T05:42:29;99632.50;;;1.95;100.00
48652;BME280;34442;52.362;-1.302;2024-01-16T05:44:55;99628.50;;;1.99;100.00
48652;BME280;34442;52.362;-1.302;2024-01-16T05:47:20;99624.53;;;2.04;100.00
48652;BME280;34442;52.362;-1.302;2024-01-16T05:49:46;99614.94;;;2.03;100.00
48652;BME280;34442;52.362;-1.302;2024-01-16T05:52:11;99619.88;;;1.97;100.00
48652;BME280;34442;52.362;-1.302;2024-01-16T05:54:37;99616.09;;;1.92;100.00
48652;BME280;34442;52.362;-1.302;2024-01-16T05:57:02;99614.63;;;1.89;100.00
48652;BME280;34442;52.362;-1.302;2024-01-16T05:59:28;99622.72;;;1.96;100.00
48652;BME280;34442;52.362;-1.302;2024-01-16T06:01:53;99609.25;;;2.06;100.00
48652;BME280;34442;52.362;-1.302;2024-01-16T06:04:19;99606.47;;;2.07;100.00
48652;BME280;34442;52.362;-1.302;2024-01-16T06:06:44;99614.94;;;2.03;100.00
48652;BME280;34442;52.362;-1.302;2024-01-16T06:09:13;99618.56;;;2.02;100.00
48652;BME280;34442;52.362;-1.302;2024-01-16T06:11:39;99621.69;;;2.05;100.00
48652;BME280;34442;52.362;-1.302;2024-01-16T06:14:07;99620.91;;;1.88;100.00
48652;BME280;34442;52.362;-1.302;2024-01-16T06:16:32;99621.06;;;2.03;100.00
48652;BME280;34442;52.362;-1.302;2024-01-16T06:18:58;99611.56;;;2.09;100.00
48652;BME280;34442;52.362;-1.302;2024-01-16T06:21:23;99607.91;;;2.10;100.00
48652;BME280;34442;52.362;-1.302;2024-01-16T06:23:49;99607.47;;;2.06;100.00
48652;BME280;34442;52.362;-1.302;2024-01-16T06:26:15;99604.44;;;2.09;100.00
48652;BME280;34442;52.362;-1.302;2024-01-16T06:28:40;99613.63;;;1.98;100.00
48652;BME280;34442;52.362;-1.302;2024-01-16T06:31:09;99595.69;;;2.09;100.00
48652;BME280;34442;52.362;-1.302;2024-01-16T06:33:35;99592.03;;;2.10;100.00
48652;BME280;34442;52.362;-1.302;2024-01-16T06:36:02;99604.81;;;2.06;100.00
48652;BME280;34442;52.362;-1.302;2024-01-16T06:38:30;99598.03;;;2.04;100.00
48652;BME280;34442;52.362;-1.302;2024-01-16T06:40:55;99596.53;;;2.01;100.00
48652;BME280;34442;52.362;-1.302;2024-01-16T06:43:21;99594.63;;;2.18;100.00
48652;BME280;34442;52.362;-1.302;2024-01-16T06:45:46;99595.81;;;2.15;100.00
48652;BME280;34442;52.362;-1.302;2024-01-16T06:48:12;99598.66;;;2.06;100.00
48652;BME280;34442;52.362;-1.302;2024-01-16T06:50:37;99593.31;;;2.14;100.00
48652;BME280;34442;52.362;-1.302;2024-01-16T06:53:03;99596.69;;;2.08;100.00
48652;BME280;34442;52.362;-1.302;2024-01-16T06:55:28;99594.06;;;1.99;100.00
48652;BME280;34442;52.362;-1.302;2024-01-16T06:57:54;99599.34;;;1.99;100.00
48652;BME280;34442;52.362;-1.302;2024-01-16T07:00:19;99590.28;;;1.94;100.00
48652;BME280;34442;52.362;-1.302;2024-01-16T07:02:46;99593.69;;;2.11;100.00
48652;BME280;34442;52.362;-1.302;2024-01-16T07:05:11;99590.81;;;2.20;100.00
48652;BME280;34442;52.362;-1.302;2024-01-16T07:07:37;99592.16;;;2.16;100.00
48652;BME280;34442;52.362;-1.302;2024-01-16T07:10:04;99586.34;;;2.21;100.00
48652;BME280;34442;52.362;-1.302;2024-01-16T07:12:33;99586.03;;;2.16;100.00
48652;BME280;34442;52.362;-1.302;2024-01-16T07:14:59;99574.47;;;2.09;100.00
48652;BME280;34442;52.362;-1.302;2024-01-16T07:17:24;99578.63;;;2.11;100.00
48652;BME280;34442;52.362;-1.302;2024-01-16T07:19:50;99579.38;;;2.28;100.00
48652;BME280;34442;52.362;-1.302;2024-01-16T07:22:15;99566.44;;;2.25;100.00
48652;BME280;34442;52.362;-1.302;2024-01-16T07:24:41;99554.72;;;2.19;100.00
48652;BME280;34442;52.362;-1.302;2024-01-16T07:27:09;99562.81;;;2.18;100.00
48652;BME280;34442;52.362;-1.302;2024-01-16T07:29:35;99559.31;;;2.26;100.00
48652;BME280;34442;52.362;-1.302;2024-01-16T07:32:00;99554.50;;;2.29;100.00
48652;BME280;34442;52.362;-1.302;2024-01-16T07:34:26;99554.34;;;2.31;100.00
48652;BME280;34442;52.362;-1.302;2024-01-16T07:36:51;99564.47;;;2.27;100.00
48652;BME280;34442;52.362;-1.302;2024-01-16T07:39:17;99568.06;;;2.34;100.00
48652;BME280;34442;52.362;-1.302;2024-01-16T07:41:42;99564.13;;;2.22;100.00
48652;BME280;34442;52.362;-1.302;2024-01-16T07:44:07;99559.31;;;2.26;100.00
48652;BME280;34442;52.362;-1.302;2024-01-16T07:46:33;99564.47;;;2.27;100.00
48652;BME280;34442;52.362;-1.302;2024-01-16T07:48:58;99559.78;;;2.29;100.00
48652;BME280;34442;52.362;-1.302;2024-01-16T07:51:24;99555.19;;;2.23;100.00
48652;BME280;34442;52.362;-1.302;2024-01-16T07:53:58;99549.06;;;2.22;100.00
48652;BME280;34442;52.362;-1.302;2024-01-16T07:56:29;99543.72;;;2.31;100.00
48652;BME280;34442;52.362;-1.302;2024-01-16T07:58:54;99537.91;;;2.35;100.00
48652;BME280;34442;52.362;-1.302;2024-01-16T08:01:20;99539.41;;;2.30;100.00
48652;BME280;34442;52.362;-1.302;2024-01-16T08:03:46;99537.94;;;2.27;100.00
48652;BME280;34442;52.362;-1.302;2024-01-16T08:06:11;99537.84;;;2.43;100.00
48652;BME280;34442;52.362;-1.302;2024-01-16T08:08:37;99538.38;;;2.39;100.00
48652;BME280;34442;52.362;-1.302;2024-01-16T08:11:02;99537.19;;;2.41;100.00
48652;BME280;34442;52.362;-1.302;2024-01-16T08:13:28;99531.25;;;2.39;100.00
48652;BME280;34442;52.362;-1.302;2024-01-16T08:15:53;99523.34;;;2.54;100.00
48652;BME280;34442;52.362;-1.302;2024-01-16T08:18:19;99525.19;;;2.54;100.00
48652;BME280;34442;52.362;-1.302;2024-01-16T08:20:44;99518.34;;;2.59;100.00
48652;BME280;34442;52.362;-1.302;2024-01-16T08:23:10;99519.28;;;2.43;100.00
48652;BME280;34442;52.362;-1.302;2024-01-16T08:25:35;99533.13;;;2.54;100.00
48652;BME280;34442;52.362;-1.302;2024-01-16T08:28:00;99530.66;;;2.52;100.00
48652;BME280;34442;52.362;-1.302;2024-01-16T08:30:26;99525.72;;;2.49;100.00
48652;BME280;34442;52.362;-1.302;2024-01-16T08:32:51;99531.16;;;2.56;100.00
48652;BME280;34442;52.362;-1.302;2024-01-16T08:35:17;99524.84;;;2.57;100.00
48652;BME280;34442;52.362;-1.302;2024-01-16T08:37:42;99528.34;;;2.49;100.00
48652;BME280;34442;52.362;-1.302;2024-01-16T08:40:08;99522.81;;;2.59;100.00
48652;BME280;34442;52.362;-1.302;2024-01-16T08:42:34;99527.09;;;2.68;100.00
48652;BME280;34442;52.362;-1.302;2024-01-16T08:44:59;99522.13;;;2.65;100.00
48652;BME280;34442;52.362;-1.302;2024-01-16T08:47:24;99519.88;;;2.77;100.00
48652;BME280;34442;52.362;-1.302;2024-01-16T08:49:50;99517.22;;;2.77;100.00
48652;BME280;34442;52.362;-1.302;2024-01-16T08:52:15;99513.09;;;2.74;100.00
48652;BME280;34442;52.362;-1.302;2024-01-16T08:54:42;99514.50;;;2.62;100.00
48652;BME280;34442;52.362;-1.302;2024-01-16T08:57:07;99520.56;;;2.70;100.00
48652;BME280;34442;52.362;-1.302;2024-01-16T08:59:35;99507.97;;;2.72;100.00
48652;BME280;34442;52.362;-1.302;2024-01-16T09:02:00;99510.78;;;2.71;100.00
48652;BME280;34442;52.362;-1.302;2024-01-16T09:04:26;99498.41;;;2.86;100.00
48652;BME280;34442;52.362;-1.302;2024-01-16T09:06:51;99487.84;;;2.78;100.00
48652;BME280;34442;52.362;-1.302;2024-01-16T09:09:17;99496.56;;;2.87;100.00
48652;BME280;34442;52.362;-1.302;2024-01-16T09:11:43;99491.38;;;2.70;100.00
48652;BME280;34442;52.362;-1.302;2024-01-16T09:14:08;99495.47;;;2.81;100.00
48652;BME280;34442;52.362;-1.302;2024-01-16T09:16:34;99503.72;;;2.86;100.00
48652;BME280;34442;52.362;-1.302;2024-01-16T09:19:00;99498.63;;;2.99;100.00
48652;BME280;34442;52.362;-1.302;2024-01-16T09:21:26;99501.81;;;2.95;100.00
48652;BME280;34442;52.362;-1.302;2024-01-16T09:23:51;99500.63;;;2.97;100.00
48652;BME280;34442;52.362;-1.302;2024-01-16T09:26:16;99492.84;;;2.96;100.00
48652;BME280;34442;52.362;-1.302;2024-01-16T09:28:42;99495.41;;;3.04;100.00
48652;BME280;34442;52.362;-1.302;2024-01-16T09:31:09;99484.34;;;3.01;100.00
48652;BME280;34442;52.362;-1.302;2024-01-16T09:33:34;99480.34;;;3.05;100.00
48652;BME280;34442;52.362;-1.302;2024-01-16T09:36:00;99482.13;;;3.04;100.00
48652;BME280;34442;52.362;-1.302;2024-01-16T09:38:25;99485.03;;;3.17;100.00
48652;BME280;34442;52.362;-1.302;2024-01-16T09:40:52;99480.97;;;3.07;100.00
48652;BME280;34442;52.362;-1.302;2024-01-16T09:43:22;99484.88;;;2.96;100.00
48652;BME280;34442;52.362;-1.302;2024-01-16T09:45:48;99485.81;;;3.03;100.00
48652;BME280;34442;52.362;-1.302;2024-01-16T09:48:15;99489.06;;;2.90;100.00
48652;BME280;34442;52.362;-1.302;2024-01-16T09:50:40;99484.13;;;2.87;100.00
48652;BME280;34442;52.362;-1.302;2024-01-16T09:53:06;99482.81;;;2.83;100.00
48652;BME280;34442;52.362;-1.302;2024-01-16T09:55:31;99478.06;;;2.79;100.00
48652;BME280;34442;52.362;-1.302;2024-01-16T09:57:57;99483.66;;;2.84;100.00
48652;BME280;34442;52.362;-1.302;2024-01-16T10:00:23;99479.06;;;2.78;100.00
48652;BME280;34442;52.362;-1.302;2024-01-16T10:02:50;99482.81;;;2.83;100.00
48652;BME280;34442;52.362;-1.302;2024-01-16T10:05:15;99475.19;;;2.88;100.00
48652;BME280;34442;52.362;-1.302;2024-01-16T10:07:42;99468.03;;;2.89;100.00
48652;BME280;34442;52.362;-1.302;2024-01-16T10:10:10;99467.78;;;2.98;100.00
48652;BME280;34442;52.362;-1.302;2024-01-16T10:12:37;99466.41;;;3.03;100.00
48652;BME280;34442;52.362;-1.302;2024-01-16T10:15:05;99459.91;;;3.05;100.00
48652;BME280;34442;52.362;-1.302;2024-01-16T10:17:43;99461.38;;;2.93;100.00
48652;BME280;34442;52.362;-1.302;2024-01-16T10:20:10;99454.75;;;2.89;100.00
48652;BME280;34442;52.362;-1.302;2024-01-16T10:22:52;99448.56;;;2.96;100.00
48652;BME280;34442;52.362;-1.302;2024-01-16T10:25:18;99452.66;;;2.99;100.00
48652;BME280;34442;52.362;-1.302;2024-01-16T10:27:45;99447.19;;;3.01;100.00
48652;BME280;34442;52.362;-1.302;2024-01-16T10:30:11;99450.84;;;3.14;100.00
48652;BME280;34442;52.362;-1.302;2024-01-16T10:32:41;99442.63;;;3.09;100.00
48652;BME280;34442;52.362;-1.302;2024-01-16T10:35:11;99447.19;;;3.01;100.00
48652;BME280;34442;52.362;-1.302;2024-01-16T10:37:51;99435.13;;;3.13;100.00
48652;BME280;34442;52.362;-1.302;2024-01-16T10:40:17;99440.88;;;3.16;100.00
48652;BME280;34442;52.362;-1.302;2024-01-16T10:42:44;99431.09;;;3.17;100.00
48652;BME280;34442;52.362;-1.302;2024-01-16T10:45:18;99430.63;;;3.28;100.00
48652;BME280;34442;52.362;-1.302;2024-01-16T10:47:46;99423.88;;;3.26;100.00
48652;BME280;34442;52.362;-1.302;2024-01-16T10:50:12;99419.09;;;3.21;100.00
48652;BME280;34442;52.362;-1.302;2024-01-16T10:52:46;99419.84;;;3.30;100.00
48652;BME280;34442;52.362;-1.302;2024-01-16T10:55:18;99424.59;;;3.34;100.00
48652;BME280;34442;52.362;-1.302;2024-01-16T10:57:45;99408.00;;;3.47;100.00
48652;BME280;34442;52.362;-1.302;2024-01-16T11:00:12;99418.28;;;3.50;100.00
48652;BME280;34442;52.362;-1.302;2024-01-16T11:05:22;99410.72;;;3.54;100.00
48652;BME280;34442;52.362;-1.302;2024-01-16T11:07:49;99410.91;;;3.52;100.00
48652;BME280;34442;52.362;-1.302;2024-01-16T11:10:17;99405.50;;;3.45;100.00
48652;BME280;34442;52.362;-1.302;2024-01-16T11:12:43;99398.66;;;3.07;100.00
48652;BME280;34442;52.362;-1.302;2024-01-16T11:15:11;99396.91;;;3.43;100.00
48652;BME280;34442;52.362;-1.302;2024-01-16T11:17:38;99391.03;;;3.33;100.00
48652;BME280;34442;52.362;-1.302;2024-01-16T11:20:05;99391.91;;;3.34;100.00
48652;BME280;34442;52.362;-1.302;2024-01-16T11:22:39;99388.03;;;3.51;100.00
48652;BME280;34442;52.362;-1.302;2024-01-16T11:25:09;99378.22;;;3.52;100.00
48652;BME280;34442;52.362;-1.302;2024-01-16T11:27:38;99371.16;;;3.44;100.00
48652;BME280;34442;52.362;-1.302;2024-01-16T11:30:05;99382.00;;;3.42;100.00
48652;BME280;34442;52.362;-1.302;2024-01-16T11:35:04;99374.81;;;3.58;100.00
48652;BME280;34442;52.362;-1.302;2024-01-16T11:37:33;99379.22;;;3.51;100.00
48652;BME280;34442;52.362;-1.302;2024-01-16T11:42:50;99369.00;;;3.84;100.00
48652;BME280;34442;52.362;-1.302;2024-01-16T11:50:34;99379.66;;;3.69;100.00
48652;BME280;34442;52.362;-1.302;2024-01-16T11:52:59;99373.09;;;3.86;100.00
48652;BME280;34442;52.362;-1.302;2024-01-16T11:55:35;99374.56;;;3.89;100.00
48652;BME280;34442;52.362;-1.302;2024-01-16T12:00:55;99365.28;;;4.00;100.00
48652;BME280;34442;52.362;-1.302;2024-01-16T12:03:22;99360.69;;;4.15;100.00
48652;BME280;34442;52.362;-1.302;2024-01-16T12:05:59;99364.03;;;4.02;100.00
48652;BME280;34442;52.362;-1.302;2024-01-16T12:08:25;99359.63;;;4.09;100.00
48652;BME280;34442;52.362;-1.302;2024-01-16T12:10:51;99348.94;;;4.24;100.00
48652;BME280;34442;52.362;-1.302;2024-01-16T12:13:16;99349.00;;;4.09;100.00
48652;BME280;34442;52.362;-1.302;2024-01-16T12:15:42;99348.91;;;4.03;100.00
48652;BME280;34442;52.362;-1.302;2024-01-16T12:18:08;99337.41;;;3.95;100.00
48652;BME280;34442;52.362;-1.302;2024-01-16T12:20:36;99323.47;;;4.15;100.00
48652;BME280;34442;52.362;-1.302;2024-01-16T12:23:08;99316.50;;;3.92;100.00
48652;BME280;34442;52.362;-1.302;2024-01-16T12:25:36;99304.66;;;4.16;100.00
48652;BME280;34442;52.362;-1.302;2024-01-16T12:28:05;99294.97;;;4.09;100.00
48652;BME280;34442;52.362;-1.302;2024-01-16T12:30:35;99279.88;;;4.37;100.00
48652;BME280;34442;52.362;-1.302;2024-01-16T12:33:08;99283.63;;;4.50;100.00
48652;BME280;34442;52.362;-1.302;2024-01-16T12:35:35;99265.34;;;3.90;100.00
48652;BME280;34442;52.362;-1.302;2024-01-16T12:38:02;99255.28;;;4.07;100.00
48652;BME280;34442;52.362;-1.302;2024-01-16T12:40:28;99263.44;;;4.06;100.00
48652;BME280;34442;52.362;-1.302;2024-01-16T12:42:55;99258.22;;;4.19;100.00
48652;BME280;34442;52.362;-1.302;2024-01-16T12:45:21;99255.19;;;4.22;100.00
48652;BME280;34442;52.362;-1.302;2024-01-16T12:47:53;99243.38;;;4.31;100.00
48652;BME280;34442;52.362;-1.302;2024-01-16T12:50:23;99233.81;;;4.37;100.00
48652;BME280;34442;52.362;-1.302;2024-01-16T12:52:50;99242.75;;;4.29;100.00
48652;BME280;34442;52.362;-1.302;2024-01-16T12:55:16;99232.31;;;4.28;100.00
48652;BME280;34442;52.362;-1.302;2024-01-16T12:57:43;99212.00;;;4.55;100.00
48652;BME280;34442;52.362;-1.302;2024-01-16T13:00:24;99209.56;;;4.60;100.00
48652;BME280;34442;52.362;-1.302;2024-01-16T13:02:52;99201.53;;;4.46;100.00